Aérodrome :
LOGIN :

S'inscrire | Disclaimer

   EN    FR    IT 

 










Légende :    VFR   VFR Marginal   IFR   IFR Intensif   IFR Très Intensif
Visi : 
Plafond : 
>= 8 km
>= 3000ft
5 à 8 km
1000 à 3000 ft
1500m à 5 km
500 à 1000 ft
800 à 1500m
200 à 500 ft
< 800m
< 200 ft
Symboles :   Orages  Brouillard  Fortes neiges  Fortes précipitations  Vent > 20 kt
SIGMETs :   Divers  Orages  Givrage  Turbulence  Onde Orograph.  Cendres Volcan.






- Altitude de l'aérodrome : 628 ft
- Code IATA : CMR


LFGA - Colmar-Houssen

DERNIER METAR :
  • 131900Z AUTO 26004KT CAVOK 23/17 Q1014

METARs EXPIRÉS :
  • 131830Z AUTO 23006KT 210V290 CAVOK 24/17 Q1014
  • 131800Z AUTO VRB02KT 9999 ///TCU 25/15 Q1014
  • 131730Z AUTO 06004KT 010V100 CAVOK 25/17 Q1014
  • 131700Z AUTO 31005KT 270V350 CAVOK 26/17 Q1014
  • 131630Z AUTO 29008KT 9999 ///CB 25/17 Q1014

TAF N/A



MET'MAP, la Météo Aéronautique d'un coup d'oeil ! - Copyright ORBIFLY Décembre 2007 - Disclaimer

ORBIFLY MET'MAP TEAM :

Programmation & Développement : Alexandra Zaïnal
Sur une idée originale de : Baudouin d'Aumeries
Assistance à la programmation : Marc-Olivier Méhu
Soutien technique & logistique : Manuel Goepfert

Contact : metmap@orbifly.com




SOURCES & CREDITS :

   NOAA